Time;durP1;ratioP1;P1;durP2;ratioP2;P2;SDS_P1;SDS_P2;PMS_P1;PMS_P2;Temp;Humidity;BMP_temperature;BMP_pressure;BME280_temperature;BME280_humidity;BME280_pressure;Samples;Min_cycle;Max_cycle;Signal;HPM_P1;HPM_P2
2022/06/22 00:00:00;;;;;;;7.93;5.20;;;24.00;51.70;;;24.22;44.49;97057.50;5023846;28;20336;-48
2022/06/22 00:02:42;;;;;;;5.60;4.97;;;23.90;51.80;;;24.18;44.59;97055.28;5028902;28;20056;-45
2022/06/22 00:05:29;;;;;;;7.07;4.75;;;23.80;52.30;;;24.15;44.60;97052.28;5024511;28;20052;-48
2022/06/22 00:08:03;;;;;;;6.38;4.80;;;23.80;52.60;;;24.16;44.89;97056.66;5009388;28;20053;-50
2022/06/22 00:10:31;;;;;;;6.40;4.55;;;23.80;52.30;;;24.12;45.06;97045.47;5021623;28;20046;-48
2022/06/22 00:13:01;;;;;;;6.88;5.05;;;23.80;52.40;;;24.10;45.04;97044.09;5025011;28;20056;-46
2022/06/22 00:15:37;;;;;;;7.50;5.70;;;23.80;52.80;;;24.09;45.47;97042.47;5023151;28;20048;-50
2022/06/22 00:18:24;;;;;;;6.18;5.57;;;23.80;54.00;;;24.00;46.02;97033.16;5023249;28;20050;-49
2022/06/22 00:20:56;;;;;;;5.90;4.68;;;23.70;55.70;;;23.98;46.52;97026.09;5024514;28;20053;-49
2022/06/22 00:23:36;;;;;;;5.90;5.32;;;23.60;55.00;;;23.97;46.84;97020.91;5023497;28;20056;-44
2022/06/22 00:26:22;;;;;;;6.20;5.32;;;23.60;55.20;;;23.97;46.89;97015.47;5024910;28;20083;-46
2022/06/22 00:29:09;;;;;;;7.28;5.60;;;23.70;56.90;;;23.99;46.91;97021.47;5022756;28;20058;-49
2022/06/22 00:32:03;;;;;;;7.38;6.68;;;23.60;55.80;;;24.02;47.17;97009.25;5024100;28;20045;-45
2022/06/22 00:34:33;;;;;;;7.00;5.47;;;23.70;56.50;;;24.05;47.23;97006.81;5023429;28;20356;-48
2022/06/22 00:37:30;;;;;;;8.48;7.07;;;23.80;55.70;;;24.06;47.22;97002.19;5024544;28;20054;-48
2022/06/22 00:40:16;;;;;;;9.70;6.05;;;23.80;57.00;;;24.05;47.90;97001.38;5023146;28;20065;-45
2022/06/22 00:42:50;;;;;;;8.02;6.80;;;23.80;57.30;;;24.04;48.37;97009.78;5022887;28;20236;-49
2022/06/22 00:45:28;;;;;;;6.63;6.03;;;23.80;58.00;;;24.07;49.01;97015.53;5022476;28;20247;-47
2022/06/22 00:48:14;;;;;;;7.13;6.43;;;23.80;58.00;;;24.09;48.15;97018.81;5022635;28;20042;-45
2022/06/22 00:50:55;;;;;;;6.45;5.85;;;23.80;57.60;;;24.08;47.68;97028.06;5022917;28;20049;-47
2022/06/22 00:53:34;;;;;;;10.77;6.15;;;23.80;57.10;;;24.05;47.89;97016.88;5023758;28;20084;-50
2022/06/22 00:56:22;;;;;;;10.05;6.78;;;23.70;57.00;;;23.98;48.08;97026.09;5023557;28;20221;-48
2022/06/22 00:59:21;;;;;;;6.85;6.13;;;23.60;57.50;;;23.59;49.38;97031.78;5022532;28;20056;-46
2022/06/22 01:02:18;;;;;;;7.03;6.22;;;23.20;59.00;;;23.44;48.66;97042.50;5023927;28;20344;-46
2022/06/22 01:05:16;;;;;;;6.15;5.32;;;22.80;59.70;;;23.20;50.13;97044.72;5023417;28;20052;-47
2022/06/22 01:08:16;;;;;;;8.23;6.15;;;22.60;60.70;;;23.09;49.72;97056.53;5023665;28;20321;-50
2022/06/22 01:10:56;;;;;;;6.20;5.47;;;22.50;60.20;;;22.98;49.31;97053.72;5022456;28;20344;-48
2022/06/22 01:13:45;;;;;;;6.95;5.50;;;22.30;60.10;;;22.81;49.62;97058.41;5023479;28;20046;-46
2022/06/22 01:16:30;;;;;;;7.90;5.60;;;22.20;61.10;;;22.70;49.61;97056.63;5022340;28;20046;-45
2022/06/22 01:19:15;;;;;;;6.28;5.68;;;22.10;61.00;;;22.59;50.13;97056.53;5022176;28;20046;-50
2022/06/22 01:21:51;;;;;;;5.95;5.22;;;22.00;60.60;;;22.46;50.15;97051.47;5022860;28;20046;-45
2022/06/22 01:25:02;;;;;;;6.07;5.55;;;21.80;60.70;;;22.35;50.44;97057.84;5023144;28;20068;-48
2022/06/22 01:27:38;;;;;;;5.63;5.13;;;21.80;61.20;;;22.39;50.09;97040.81;5022697;28;20049;-48
2022/06/22 01:30:23;;;;;;;5.88;5.28;;;21.80;60.40;;;22.45;49.73;97035.44;5023790;28;20058;-48
2022/06/22 01:32:52;;;;;;;8.20;6.38;;;22.00;60.20;;;22.50;49.50;97030.09;5023544;28;20050;-45
2022/06/22 01:35:31;;;;;;;7.00;5.18;;;22.10;58.90;;;22.56;49.59;97023.66;5022002;28;20245;-47
2022/06/22 01:38:19;;;;;;;5.65;4.93;;;22.20;58.80;;;22.63;49.20;97016.16;5021572;28;20105;-45
2022/06/22 01:40:55;;;;;;;6.07;5.47;;;22.40;58.50;;;22.69;49.01;97017.03;5022998;28;20050;-47
2022/06/22 01:43:37;;;;;;;6.15;5.35;;;22.50;57.70;;;22.74;48.69;97017.91;5021420;28;20064;-48
2022/06/22 01:46:46;;;;;;;7.78;5.30;;;22.60;57.60;;;22.75;49.23;97016.81;5022762;28;20056;-48
2022/06/22 01:49:22;;;;;;;5.93;5.10;;;22.60;57.90;;;22.80;48.78;97016.06;5021648;28;20054;-48
2022/06/22 01:52:04;;;;;;;7.32;5.13;;;22.50;57.70;;;22.77;48.47;97014.66;5022788;28;20067;-48
2022/06/22 01:54:47;;;;;;;6.30;4.93;;;22.50;57.10;;;22.80;48.53;97022.31;5022652;28;20048;-47
2022/06/22 01:57:30;;;;;;;;;;;22.60;56.90;;;22.78;49.04;97029.88;5022189;28;20045;-48
2022/06/22 02:00:14;;;;;;;8.05;5.53;;;22.60;57.80;;;22.80;49.21;97041.31;5022771;28;20212;-45
2022/06/22 02:03:17;;;;;;;7.15;6.10;;;22.50;58.90;;;22.79;49.58;97045.09;5021435;28;20053;-50
2022/06/22 02:09:04;;;;;;;;;;;22.40;58.90;;;22.58;49.36;97065.72;5022854;28;20221;-45
2022/06/22 02:11:41;;;;;;;6.75;5.35;;;22.10;59.80;;;22.53;50.06;97086.56;5022081;28;19924;-47
2022/06/22 02:14:25;;;;;;;6.93;5.22;;;22.10;59.80;;;22.41;50.95;97094.78;5020547;28;20050;-48
2022/06/22 02:16:58;;;;;;;8.65;5.80;;;22.00;60.50;;;22.32;50.95;97099.03;5021547;28;20052;-46
2022/06/22 02:19:30;;;;;;;6.18;5.57;;;21.90;61.00;;;22.20;51.64;97101.81;5021200;28;20050;-45
2022/06/22 02:22:00;;;;;;;5.85;5.32;;;21.80;62.10;;;22.16;51.59;97095.25;5022485;28;20056;-48
2022/06/22 02:24:34;;;;;;;9.73;5.97;;;21.70;62.00;;;22.16;51.68;97084.41;5022146;28;20347;-45
2022/06/22 02:27:10;;;;;;;6.97;6.35;;;21.80;63.10;;;22.21;51.76;97070.91;5022952;28;20056;-47
2022/06/22 02:29:50;;;;;;;6.72;5.57;;;21.80;62.70;;;22.22;51.62;97067.13;5022087;28;20060;-48
2022/06/22 02:32:37;;;;;;;6.68;6.07;;;21.80;62.50;;;22.17;51.80;97042.66;5022425;28;20046;-47
2022/06/22 02:35:09;;;;;;;5.75;5.10;;;21.70;63.30;;;22.06;52.09;97035.44;5024785;28;20237;-47
2022/06/22 02:38:00;;;;;;;7.35;6.55;;;21.60;63.10;;;21.97;51.79;97025.03;5026077;28;20430;-49
2022/06/22 02:44:29;;;;;;;6.65;5.95;;;21.50;62.80;;;21.94;51.66;97014.69;5026205;28;20052;-48
2022/06/22 02:46:17;;;;;;;6.22;5.63;;;21.60;61.20;;;21.97;51.75;96999.84;5026135;28;20056;-45
2022/06/22 02:48:52;;;;;;;7.50;6.00;;;21.60;61.50;;;21.96;51.32;97006.31;5024707;28;20056;-46
2022/06/22 02:51:33;;;;;;;7.07;6.38;;;21.60;61.60;;;21.99;51.44;97005.81;5025261;28;20050;-46
2022/06/22 02:54:07;;;;;;;7.32;5.40;;;21.60;61.30;;;22.01;50.63;96998.25;5024990;28;20060;-47
2022/06/22 02:56:39;;;;;;;;;;;21.60;60.50;;;21.99;50.83;96993.09;5026634;28;20045;-47
2022/06/22 02:59:10;;;;;;;6.85;5.47;;;21.70;60.30;;;22.07;50.73;96997.25;5040510;28;20120;-48
2022/06/22 03:01:39;;;;;;;5.90;5.40;;;21.70;60.10;;;21.88;51.13;96999.44;5026493;28;20370;-48
2022/06/22 03:04:12;;;;;;;7.80;6.45;;;21.40;61.00;;;21.85;50.79;97001.81;5024648;28;20045;-51
2022/06/22 03:06:47;;;;;;;6.38;5.32;;;21.40;60.90;;;21.87;50.85;97015.94;5025818;28;20256;-47
2022/06/22 03:09:17;;;;;;;6.45;5.78;;;21.50;61.40;;;21.89;50.96;97020.06;5025557;28;20044;-46
2022/06/22 03:11:52;;;;;;;9.93;6.63;;;21.50;60.00;;;21.90;51.01;97023.56;5025056;28;20235;-45
2022/06/22 03:14:29;;;;;;;7.93;6.55;;;21.60;60.00;;;21.89;50.79;97024.63;5024197;28;20042;-49
2022/06/22 03:17:10;;;;;;;5.80;5.10;;;21.60;60.00;;;21.90;51.10;97024.38;5026225;28;20050;-47
2022/06/22 03:19:53;;;;;;;6.30;5.68;;;21.60;60.10;;;21.90;51.30;97026.28;5024596;28;20371;-49
2022/06/22 03:22:38;;;;;;;6.20;5.22;;;21.60;60.70;;;21.90;50.98;97020.88;5026000;28;20056;-47
2022/06/22 03:25:24;;;;;;;8.00;6.05;;;21.60;61.00;;;21.90;51.23;97016.25;5025389;28;20045;-51
2022/06/22 03:28:16;;;;;;;7.28;6.30;;;21.60;61.20;;;21.92;51.01;97022.25;5024275;28;20056;-46
2022/06/22 03:31:00;;;;;;;6.15;5.65;;;21.60;60.90;;;21.90;51.30;97029.81;5024569;28;20053;-50
2022/06/22 03:33:38;;;;;;;7.20;5.50;;;21.50;61.10;;;21.89;51.30;97032.75;5024466;28;20348;-47
2022/06/22 03:36:21;;;;;;;6.97;6.05;;;21.50;60.80;;;21.82;51.25;97038.38;5025384;28;20050;-51
2022/06/22 03:39:06;;;;;;;6.40;5.40;;;21.50;60.70;;;21.77;51.08;97041.81;5023856;28;20052;-46
2022/06/22 03:41:42;;;;;;;7.22;5.20;;;21.40;61.20;;;21.75;51.74;97041.25;5025342;28;20289;-45
2022/06/22 03:44:19;;;;;;;10.35;6.78;;;21.40;61.40;;;21.69;52.33;97049.53;5024926;28;20113;-47
2022/06/22 03:47:00;;;;;;;5.88;5.30;;;21.40;62.10;;;21.72;52.09;97044.44;5023840;28;20059;-47
2022/06/22 03:49:54;;;;;;;6.30;5.70;;;21.40;61.80;;;21.70;52.36;97038.47;5023698;28;20053;-50
2022/06/22 03:52:35;;;;;;;6.70;5.80;;;21.40;62.90;;;21.72;52.59;97033.59;5024994;28;20049;-47
2022/06/22 03:55:13;;;;;;;6.43;5.85;;;21.40;62.90;;;21.76;52.21;97040.16;5024846;28;20052;-50
2022/06/22 03:57:45;;;;;;;7.05;5.25;;;21.40;62.30;;;21.73;52.57;97035.25;5023669;28;20046;-48
2022/06/22 04:00:14;;;;;;;6.75;5.45;;;21.40;63.00;;;21.75;51.96;97045.81;5025066;28;20062;-47
2022/06/22 04:02:42;;;;;;;8.55;5.82;;;21.40;62.20;;;21.74;52.75;97050.44;5025083;28;20348;-45
2022/06/22 04:05:30;;;;;;;6.38;5.57;;;21.50;62.40;;;21.71;53.01;97047.41;5024640;28;20071;-47
2022/06/22 04:07:58;;;;;;;7.70;5.55;;;21.50;63.10;;;21.73;52.72;97048.81;5023536;28;20251;-49
2022/06/22 04:10:57;;;;;;;7.97;5.90;;;21.40;62.60;;;21.69;53.04;97047.63;5022203;28;20058;-48
2022/06/22 04:13:52;;;;;;;6.57;5.88;;;21.50;63.20;;;21.78;52.44;97054.28;5023760;28;20252;-50
2022/06/22 04:16:38;;;;;;;6.15;5.55;;;21.50;62.40;;;21.68;52.36;97056.03;5023331;28;20046;-47
2022/06/22 04:19:24;;;;;;;5.93;4.93;;;21.40;62.70;;;21.68;52.47;97047.91;5023266;28;20044;-49
2022/06/22 04:22:12;;;;;;;5.32;4.82;;;21.40;62.30;;;21.69;52.39;97049.53;5024552;28;20048;-46
2022/06/22 04:24:49;;;;;;;7.30;6.57;;;21.40;62.80;;;21.76;52.55;97053.72;5023212;28;20056;-49
2022/06/22 04:27:33;;;;;;;5.82;5.22;;;21.50;62.80;;;21.76;52.31;97053.72;5023313;28;20054;-47
2022/06/22 04:30:21;;;;;;;6.90;5.55;;;21.40;62.60;;;21.80;52.14;97054.03;5024380;28;20050;-52
2022/06/22 04:33:22;;;;;;;8.02;5.80;;;21.50;62.20;;;21.87;52.01;97056.56;5023392;28;20049;-47
2022/06/22 04:36:12;;;;;;;6.80;6.07;;;21.60;61.90;;;21.92;51.76;97062.06;5031239;28;20058;-46
2022/06/22 04:39:01;;;;;;;7.60;5.95;;;21.60;62.00;;;21.98;52.25;97063.78;5023068;28;20336;-48
2022/06/22 04:41:40;;;;;;;7.45;5.63;;;21.80;61.90;;;22.00;52.05;97062.50;5024081;28;20048;-49
2022/06/22 04:44:25;;;;;;;6.85;6.10;;;21.80;61.10;;;21.95;52.02;97058.88;5022754;28;20063;-45
2022/06/22 04:46:59;;;;;;;7.03;5.63;;;21.70;61.10;;;21.76;51.55;97053.72;5022673;28;20052;-45
2022/06/22 04:49:40;;;;;;;8.02;5.45;;;21.40;61.10;;;21.51;52.79;97070.38;5022671;28;20041;-46
2022/06/22 04:52:21;;;;;;;8.82;6.70;;;21.10;62.90;;;21.45;52.49;97067.84;5024032;28;20048;-48
2022/06/22 04:54:59;;;;;;;7.28;5.57;;;21.00;63.70;;;21.46;52.85;97070.31;5023698;28;20046;-47
2022/06/22 04:57:36;;;;;;;12.05;6.72;;;21.10;63.70;;;21.53;53.09;97068.25;5023021;28;20068;-48
2022/06/22 05:00:16;;;;;;;8.32;6.20;;;21.20;63.40;;;21.64;52.46;97069.25;5022595;28;20042;-45
2022/06/22 05:02:49;;;;;;;6.93;5.65;;;21.30;62.80;;;21.62;52.23;97063.25;5022609;28;20056;-50
2022/06/22 05:05:25;;;;;;;7.85;6.75;;;21.30;62.60;;;21.61;52.52;97056.19;5023535;28;20053;-47
2022/06/22 05:08:27;;;;;;;8.20;6.05;;;21.30;62.50;;;21.63;52.20;97065.72;5022451;28;20048;-47
2022/06/22 05:11:24;;;;;;;6.70;6.03;;;21.40;62.20;;;21.74;51.80;97061.28;5024202;28;20379;-46
2022/06/22 05:13:56;;;;;;;9.05;6.30;;;21.50;61.50;;;21.85;51.89;97061.41;5023826;28;20058;-46
2022/06/22 05:16:32;;;;;;;12.30;5.68;;;21.60;60.90;;;21.89;51.57;97066.13;5023407;28;20046;-46
2022/06/22 05:19:02;;;;;;;7.70;5.90;;;21.70;61.10;;;21.96;51.69;97071.34;5022150;28;20054;-47
2022/06/22 05:21:44;;;;;;;7.28;5.95;;;21.70;60.70;;;21.98;51.66;97071.91;5022297;28;20240;-48
2022/06/22 05:24:32;;;;;;;9.18;6.43;;;21.80;60.70;;;22.00;51.73;97073.34;5023294;28;20050;-50
2022/06/22 05:27:07;;;;;;;8.88;7.32;;;21.80;60.60;;;22.03;51.50;97063.88;5022212;28;20046;-47
2022/06/22 05:29:43;;;;;;;7.40;6.65;;;21.70;61.00;;;22.05;51.27;97075.28;5021763;28;20054;-48
2022/06/22 05:32:27;;;;;;;9.68;6.20;;;21.70;60.80;;;22.09;51.55;97081.84;5022242;28;20068;-46
2022/06/22 05:34:56;;;;;;;8.23;5.82;;;21.80;60.40;;;22.09;51.13;97084.56;5007021;28;20053;-47
2022/06/22 05:37:31;;;;;;;7.55;6.72;;;21.80;60.30;;;22.09;51.33;97084.56;5022091;28;20125;-48
2022/06/22 05:40:00;;;;;;;6.90;6.25;;;21.80;59.90;;;21.95;50.74;97080.56;5023134;28;20050;-45
2022/06/22 05:42:31;;;;;;;6.28;5.60;;;21.70;60.00;;;21.92;50.93;97086.47;5023118;28;20099;-46
2022/06/22 05:44:59;;;;;;;6.32;5.45;;;21.60;59.40;;;21.95;50.47;97088.69;5022673;28;20217;-47
2022/06/22 05:47:32;;;;;;;7.05;5.18;;;21.60;59.40;;;22.02;50.62;97083.91;5022765;28;20045;-50
2022/06/22 05:50:39;;;;;;;8.40;5.18;;;21.80;59.10;;;22.13;50.60;97085.69;5023127;28;20045;-49
2022/06/22 05:53:25;;;;;;;7.60;6.57;;;22.00;58.60;;;22.25;50.62;97092.94;5022135;28;20050;-49
2022/06/22 05:56:18;;;;;;;9.38;5.95;;;22.20;58.60;;;22.34;50.14;97100.41;5021453;28;20046;-46
2022/06/22 05:59:23;;;;;;;9.27;6.88;;;22.30;58.00;;;22.31;49.52;97109.03;5021648;28;20045;-48
2022/06/22 06:02:33;;;;;;;6.88;5.68;;;22.10;57.60;;;22.35;49.39;97104.75;5022762;28;20052;-48
2022/06/22 06:05:15;;;;;;;7.88;6.13;;;22.10;56.80;;;22.27;49.95;97107.88;5022300;28;20236;-46
2022/06/22 06:07:51;;;;;;;7.22;6.20;;;22.00;58.20;;;22.34;49.80;97108.53;5022459;28;20060;-50
2022/06/22 06:10:25;;;;;;;7.40;5.25;;;22.10;58.60;;;22.40;49.67;97123.81;5020466;28;20048;-47
2022/06/22 06:13:02;;;;;;;;;;;22.20;58.10;;;22.40;49.74;97123.81;5023137;28;20049;-48
2022/06/22 06:15:36;;;;;;;7.22;5.45;;;22.30;58.20;;;22.54;49.88;97134.28;5037199;28;19924;-48
2022/06/22 06:18:09;;;;;;;8.20;6.18;;;22.40;58.40;;;22.57;50.53;97145.47;5021304;28;20052;-47
2022/06/22 06:20:41;;;;;;;;;;;22.40;58.60;;;22.48;51.08;97149.66;5022369;28;20054;-45
2022/06/22 06:23:54;;;;;;;6.47;5.72;;;22.50;59.00;;;22.71;50.47;97162.19;5022577;28;19923;-47
2022/06/22 06:30:22;;;;;;;8.23;6.22;;;22.80;58.40;;;22.54;51.77;97167.66;5022216;28;20344;-46
2022/06/22 06:33:32;;;;;;;8.80;6.35;;;22.60;59.70;;;22.47;52.08;97168.91;5021513;28;20064;-50
2022/06/22 06:36:20;;;;;;;7.35;6.07;;;22.30;60.70;;;22.49;51.79;97170.31;5022590;28;20049;-45
2022/06/22 06:39:09;;;;;;;6.50;5.90;;;22.30;62.00;;;22.42;52.98;97175.91;5022389;28;20050;-49
2022/06/22 06:42:11;;;;;;;7.75;6.68;;;22.40;62.20;;;22.28;53.11;97171.09;5021120;28;20362;-45
2022/06/22 06:44:49;;;;;;;7.93;6.85;;;22.30;62.40;;;22.29;53.43;97172.72;5022024;28;20255;-46
2022/06/22 06:47:27;;;;;;;7.55;6.07;;;22.20;62.80;;;22.20;53.74;97166.88;5022299;28;20268;-48
2022/06/22 06:50:26;;;;;;;7.63;6.20;;;22.20;62.70;;;22.49;52.63;97166.75;5022103;28;20112;-49
2022/06/22 06:53:28;;;;;;;8.55;6.15;;;22.40;61.80;;;22.46;52.96;97167.28;5021060;28;20340;-49
2022/06/22 06:56:16;;;;;;;11.95;6.80;;;22.40;61.80;;;22.61;52.93;97170.22;5021946;28;20044;-47
2022/06/22 06:59:03;;;;;;;7.03;6.32;;;22.70;61.30;;;22.73;52.40;97175.53;5022017;28;20050;-47
2022/06/22 07:01:35;;;;;;;7.63;6.85;;;22.90;60.40;;;22.81;52.08;97172.38;5022201;28;20054;-50
2022/06/22 07:04:16;;;;;;;7.50;6.43;;;22.80;60.10;;;22.80;52.14;97159.88;5021536;28;20050;-49
2022/06/22 07:06:45;;;;;;;8.70;7.00;;;22.80;60.30;;;22.74;52.18;97159.00;5022163;28;20240;-50
2022/06/22 07:09:28;;;;;;;9.80;7.00;;;22.80;60.60;;;22.93;52.13;97164.09;5020751;28;20052;-47
2022/06/22 07:12:06;;;;;;;8.07;6.07;;;23.00;60.40;;;22.99;51.68;97158.50;5019981;28;20054;-52
2022/06/22 07:14:44;;;;;;;9.05;7.07;;;23.00;59.70;;;23.09;51.08;97152.41;5021927;28;20056;-45
2022/06/22 07:17:17;;;;;;;7.25;6.45;;;23.10;59.10;;;23.18;51.17;97156.28;5021813;28;20052;-48
2022/06/22 07:19:58;;;;;;;6.95;5.60;;;23.20;58.80;;;23.30;50.78;97160.75;5021494;28;20348;-48
2022/06/22 07:23:00;;;;;;;8.38;5.80;;;23.40;58.50;;;23.30;50.98;97155.34;5024646;28;20243;-50
2022/06/22 07:25:35;;;;;;;8.45;6.70;;;23.40;58.60;;;23.32;50.75;97161.31;5025346;28;20054;-47
2022/06/22 07:28:15;;;;;;;10.68;6.25;;;23.40;58.70;;;23.34;50.69;97151.88;5025253;28;20052;-47
2022/06/22 07:31:15;;;;;;;9.45;6.32;;;23.40;58.10;;;23.31;50.31;97148.84;5025512;28;20042;-48
2022/06/22 07:34:19;;;;;;;6.85;6.13;;;23.30;58.10;;;23.25;50.36;97153.41;5025558;28;20057;-46
2022/06/22 07:37:00;;;;;;;9.95;5.97;;;23.30;58.40;;;23.16;50.29;97146.78;5025096;28;20370;-46
2022/06/22 07:39:48;;;;;;;8.07;6.40;;;23.10;58.00;;;23.14;50.39;97140.78;5024310;28;20054;-45
2022/06/22 07:42:16;;;;;;;11.70;6.10;;;23.00;58.00;;;23.12;49.98;97142.91;5024254;28;20050;-49
2022/06/22 07:44:44;;;;;;;7.35;5.43;;;23.00;57.80;;;23.16;49.93;97144.88;5025057;28;20046;-46
2022/06/22 07:47:57;;;;;;;8.27;6.60;;;23.00;57.80;;;23.22;49.60;97136.78;5024694;28;20251;-46
2022/06/22 07:50:32;;;;;;;9.70;6.18;;;23.20;56.40;;;23.24;48.82;97140.06;5024013;28;20054;-50
2022/06/22 07:53:45;;;;;;;10.57;6.22;;;23.10;56.50;;;22.99;48.40;97128.66;5025108;28;20056;-45
2022/06/22 07:56:41;;;;;;;8.88;5.10;;;22.90;55.60;;;23.02;48.27;97121.88;5023685;28;20276;-49
2022/06/22 08:00:04;;;;;;;8.27;5.47;;;22.80;55.90;;;23.09;48.29;97124.41;5023874;28;20061;-47
2022/06/22 08:03:25;;;;;;;10.48;5.40;;;23.10;55.40;;;23.21;48.57;97125.13;5040657;28;20390;-47
2022/06/22 08:05:59;;;;;;;7.70;5.45;;;23.30;55.30;;;23.32;48.39;97131.47;5038607;28;20049;-46
2022/06/22 08:08:55;;;;;;;10.13;4.70;;;23.40;54.20;;;23.37;47.52;97124.19;5023366;28;20260;-48
2022/06/22 08:11:42;;;;;;;7.28;4.90;;;23.40;54.30;;;23.34;46.98;97126.59;5023758;28;20248;-47
2022/06/22 08:14:22;;;;;;;5.13;4.53;;;23.40;54.00;;;23.42;47.66;97125.31;5043425;28;20041;-48
2022/06/22 08:17:00;;;;;;;9.73;6.07;;;23.30;54.20;;;23.32;47.66;97118.72;5043348;28;20045;-47
2022/06/22 08:19:30;;;;;;;7.80;5.88;;;23.20;54.70;;;23.28;48.15;97131.13;5044237;28;20044;-45
2022/06/22 08:22:04;;;;;;;8.02;4.93;;;23.10;55.40;;;23.30;47.94;97130.91;5042664;28;20056;-46
2022/06/22 08:24:40;;;;;;;7.60;5.50;;;23.10;55.50;;;23.06;48.69;97131.19;5042958;28;20048;-48
2022/06/22 08:27:17;;;;;;;8.27;5.65;;;22.90;56.30;;;23.12;48.55;97135.59;5043227;28;20059;-47
2022/06/22 08:29:50;;;;;;;6.72;6.03;;;22.80;56.40;;;23.21;48.51;97143.31;5042976;28;20381;-47
2022/06/22 08:32:50;;;;;;;7.65;5.47;;;23.00;56.20;;;23.21;48.49;97149.56;5041707;28;20057;-46
2022/06/22 08:35:19;;;;;;;8.93;6.00;;;23.10;55.60;;;23.21;48.40;97148.75;5043069;28;20085;-48
2022/06/22 08:38:21;;;;;;;8.20;5.47;;;23.00;56.00;;;23.10;48.59;97135.03;5042708;28;20260;-47
2022/06/22 08:41:33;;;;;;;9.75;6.13;;;23.10;55.70;;;23.19;48.09;97140.84;5044334;28;20049;-48
2022/06/22 08:44:05;;;;;;;8.63;5.38;;;23.00;56.00;;;22.97;48.56;97146.25;5049787;28;20059;-47
2022/06/22 08:46:49;;;;;;;8.95;5.70;;;22.70;56.40;;;23.02;48.72;97153.63;5044228;28;20371;-50
2022/06/22 08:49:39;;;;;;;9.43;6.68;;;22.80;57.00;;;22.88;49.34;97153.19;5043363;28;20045;-49
2022/06/22 08:52:22;;;;;;;8.55;5.20;;;22.70;57.40;;;23.00;49.12;97160.13;5043777;28;20049;-49
2022/06/22 08:55:21;;;;;;;9.77;6.03;;;22.80;57.20;;;22.87;49.55;97167.81;5044090;28;20060;-46
2022/06/22 08:58:50;;;;;;;9.07;6.78;;;22.60;57.90;;;22.94;49.68;97171.19;5043175;28;20092;-48
2022/06/22 09:01:42;;;;;;;9.95;6.22;;;22.80;58.10;;;22.92;50.34;97176.84;5050557;28;20375;-49
2022/06/22 09:04:46;;;;;;;9.38;5.97;;;22.80;58.20;;;22.99;50.02;97174.78;5042277;28;20239;-48
2022/06/22 09:07:54;;;;;;;9.32;8.02;;;22.80;58.30;;;22.94;49.92;97179.31;5043469;28;20116;-49
2022/06/22 09:11:02;;;;;;;7.68;6.90;;;22.70;58.30;;;22.85;50.22;97169.97;5042269;28;20050;-48
2022/06/22 09:14:15;;;;;;;7.63;6.93;;;22.70;59.00;;;22.80;50.90;97171.56;5043683;28;20061;-45
2022/06/22 09:17:29;;;;;;;11.32;6.88;;;22.70;59.30;;;22.91;50.10;97179.81;5042365;28;20052;-46
2022/06/22 09:20:20;;;;;;;11.18;7.82;;;22.80;58.90;;;23.05;50.33;97177.56;5042132;28;20231;-45
2022/06/22 09:22:57;;;;;;;10.63;7.35;;;23.00;58.40;;;23.14;50.22;97174.16;5042228;28;20056;-44
2022/06/22 09:25:49;;;;;;;9.45;6.75;;;23.10;58.10;;;23.26;49.89;97173.22;5042115;28;20045;-44
2022/06/22 09:28:37;;;;;;;8.45;7.22;;;23.20;58.00;;;23.35;49.88;97175.22;5042801;28;20055;-47
2022/06/22 09:31:28;;;;;;;8.15;6.30;;;23.40;57.70;;;23.38;49.59;97177.44;5041739;28;20059;-46
2022/06/22 09:34:21;;;;;;;8.32;6.85;;;23.30;57.90;;;23.44;50.00;97177.47;5041935;28;20068;-46
2022/06/22 09:37:05;;;;;;;7.60;6.33;;;23.40;58.30;;;23.45;50.15;97179.94;5042989;28;20056;-50
2022/06/22 09:40:08;;;;;;;7.80;6.85;;;23.40;58.40;;;23.47;50.29;97182.41;5041597;28;20482;-45
2022/06/22 09:43:15;;;;;;;10.43;7.85;;;23.40;58.60;;;23.45;50.37;97184.56;5041296;28;20053;-48
2022/06/22 09:45:54;;;;;;;7.35;6.47;;;23.30;59.10;;;23.52;51.43;97187.91;5042373;28;20057;-45
2022/06/22 09:48:38;;;;;;;8.25;6.80;;;23.40;60.60;;;23.52;51.86;97191.44;5043200;28;20049;-47
2022/06/22 09:51:20;;;;;;;8.15;7.10;;;23.40;61.30;;;23.52;52.78;97187.91;5041816;28;20045;-46
2022/06/22 09:57:42;;;;;;;10.02;8.38;;;23.30;66.90;;;23.34;54.46;97197.19;5041572;28;20063;-48
2022/06/22 10:00:26;;;;;;;9.25;8.05;;;23.00;66.20;;;23.30;55.94;97201.50;5041619;28;20067;-47
2022/06/22 10:03:17;;;;;;;;;;;22.90;70.20;;;23.11;56.40;97203.72;5042094;28;20045;-50
2022/06/22 10:05:49;;;;;;;14.02;9.10;;;22.60;72.50;;;23.15;55.94;97207.59;5041337;28;19917;-45
2022/06/22 10:08:41;;;;;;;9.57;8.68;;;22.60;71.20;;;23.15;56.34;97200.25;5042176;28;20049;-46
2022/06/22 10:11:32;;;;;;;9.45;8.45;;;22.70;75.80;;;23.13;56.66;97207.03;5042023;28;20056;-49
2022/06/22 10:14:49;;;;;;;10.65;9.38;;;22.70;72.60;;;23.17;56.86;97213.59;5042510;28;20060;-47
2022/06/22 10:17:27;;;;;;;11.07;8.88;;;22.80;74.70;;;23.21;58.46;97213.91;5042340;28;20063;-44
2022/06/22 10:20:37;;;;;;;8.45;7.65;;;22.90;77.30;;;23.14;57.15;97212.19;5042232;28;20046;-44
2022/06/22 10:23:27;;;;;;;8.40;7.50;;;22.90;74.30;;;23.20;57.17;97213.06;5042311;28;20051;-47
2022/06/22 10:26:22;;;;;;;9.45;7.85;;;23.00;73.80;;;23.23;56.35;97206.31;5042102;28;20060;-46
2022/06/22 10:29:14;;;;;;;9.02;7.72;;;23.00;71.00;;;23.29;57.19;97210.75;5041953;28;20045;-47
2022/06/22 10:31:45;;;;;;;10.00;8.27;;;23.10;73.20;;;23.31;57.21;97214.00;5042284;28;20055;-49
2022/06/22 10:34:42;;;;;;;8.82;7.30;;;23.10;72.00;;;23.34;57.60;97208.91;5040790;28;20217;-45
2022/06/22 10:37:48;;;;;;;7.57;6.63;;;23.20;73.90;;;23.37;57.05;97218.44;5042629;28;20059;-48
2022/06/22 10:47:05;;;;;;;7.43;6.63;;;23.30;72.90;;;23.47;56.53;97215.00;5041931;28;20052;-45
2022/06/22 10:50:15;;;;;;;10.50;6.85;;;23.30;71.10;;;23.50;57.24;97228.09;5042285;28;20243;-48
2022/06/22 10:53:22;;;;;;;7.60;6.80;;;23.40;72.40;;;23.53;57.22;97222.94;5042114;28;20045;-46
2022/06/22 10:56:30;;;;;;;12.30;8.25;;;23.40;72.20;;;23.55;57.16;97226.25;5043979;28;20051;-48
2022/06/22 10:59:16;;;;;;;10.50;6.70;;;23.50;73.50;;;23.57;57.05;97225.97;5045920;28;20056;-46
2022/06/22 11:02:21;;;;;;;7.30;6.50;;;23.40;71.30;;;23.55;56.58;97228.97;5045990;28;20056;-46
2022/06/22 11:05:27;;;;;;;10.13;6.80;;;23.40;70.20;;;23.58;56.55;97242.03;5045699;28;20048;-45
2022/06/22 11:08:24;;;;;;;7.22;6.53;;;23.40;70.30;;;23.62;56.39;97246.97;5046025;28;20053;-48
2022/06/22 11:11:13;;;;;;;8.93;7.40;;;23.50;70.00;;;23.64;56.51;97242.09;5044919;28;20091;-48
2022/06/22 11:14:35;;;;;;;10.05;7.97;;;23.50;70.50;;;23.67;56.40;97247.84;5045928;28;20057;-49
2022/06/22 11:17:40;;;;;;;9.15;8.02;;;23.60;71.20;;;23.75;56.96;97250.09;5044601;28;20079;-45
2022/06/22 11:20:41;;;;;;;12.60;8.23;;;23.70;72.20;;;23.82;57.62;97252.63;5045506;28;20053;-45
2022/06/22 11:23:16;;;;;;;10.30;8.80;;;23.70;73.10;;;23.81;57.62;97263.75;5045538;28;20071;-46
2022/06/22 11:32:11;;;;;;;7.50;6.80;;;23.70;71.10;;;23.81;57.41;97274.63;5046197;28;20049;-49
2022/06/22 11:35:25;;;;;;;7.25;5.75;;;23.70;72.00;;;23.83;57.38;97270.59;5045194;28;20045;-46
2022/06/22 11:38:32;;;;;;;7.05;6.32;;;23.80;72.50;;;23.87;57.85;97265.47;5044095;28;20045;-47
2022/06/22 11:41:33;;;;;;;7.50;6.32;;;23.80;74.20;;;23.88;58.32;97267.91;5045244;28;20053;-47
2022/06/22 11:44:38;;;;;;;8.10;6.53;;;23.80;75.10;;;23.94;58.27;97266.06;5045148;28;20136;-46
2022/06/22 11:47:25;;;;;;;8.10;6.20;;;23.80;74.80;;;23.96;58.92;97272.06;5044999;28;20375;-45
2022/06/22 11:50:15;;;;;;;6.82;6.13;;;23.80;75.60;;;24.00;58.94;97266.94;5043476;28;20053;-48
2022/06/22 11:53:46;;;;;;;9.15;6.10;;;23.90;75.00;;;24.06;58.79;97272.19;5044084;28;20243;-48
2022/06/22 11:56:46;;;;;;;8.73;6.20;;;24.00;75.70;;;24.23;58.86;97265.81;5043660;28;20063;-45
2022/06/22 11:59:28;;;;;;;6.95;6.20;;;24.20;74.90;;;24.35;59.18;97269.19;5044592;28;20053;-49
2022/06/22 12:02:34;;;;;;;6.65;5.97;;;24.40;74.60;;;24.34;58.19;97259.38;5044789;28;20054;-47
2022/06/22 12:05:31;;;;;;;8.15;6.55;;;24.60;71.50;;;24.42;58.22;97263.53;5044578;28;20041;-47